Oud-Heverlee, Belgium
Current Conditions -  °F | °C
As of 9:50 AM on Wednesday 26 Nov 2014 (Local Time) from EBBR Reporting Station
Scattered Clouds Scattered Clouds  
Wind Chill: 39°   Ceiling: Unl
Heat Index: 43°   Visibility: 4mi
Dew Point: 39°   Wind: 6mph
Humidity: 87%   Direction: 110°ESE
Pressure: 29.94"   Gusts: NA
Location:  50.84°N, 4.66°E
Report Text: EBBR 260850Z 11005KT 7000 SCT025 06/04 Q1014 NOSIG
Loading
Personal Weather Stations






























Interactive Weather Map New forecast layout! Learn more

10-Day Weather Forecast

Advertisements
Track Severe Weather on mobile